Glasco, KS

5:54 PM CDT on September 17, 2014 (GMT -0500)
Simpson KS | Change Station
CLOSE
Current Station
Personal Weather Station
Location: Beloit, KS
Elevation: 1342 ft
Nearby Weather Stations

Elev 1342 ft 39.39 °N, 97.94 °W | Updated 9 minutes ago

Clear
Clear
81.9 °F
Feels Like 94 °F
N
3.2
Wind Variable Wind from East

Today
High -- | Low -- °F
--% Chance of Precip.
Yesterday
High -- | Low -- °F
Precip. -- in
7:14 AM 7:36 PM
Waning Crescent, 32% visible
Pressure 29.83 in
Visibility 10.0 miles
Clouds Clear
Heat Index 94 °F
Dew Point 81 °F
Humidity 98%
Rainfall 0.00 in
Snow Depth Not available.
UV 3 out of 12
Pollen 5.80 out of 12
Air Quality Not available.
Flu Activity Not available.
METAR KCNK 172155Z AUTO 11008KT 10SM CLR 26/19 A2987 RMK AO2 SLP102 T02610189

More Conditions Fewer Conditions

Pressure 29.83 in
Visibility 10.0 miles
Clouds Clear
Heat Index 94 °F
Dew Point 81 °F
Humidity 98%
Rainfall 0.00 in
Snow Depth Not available.
UV 3 out of 12
Pollen 5.80 out of 12
Air Quality Not available.
Flu Activity Not available.
METAR KCNK 172155Z AUTO 11008KT 10SM CLR 26/19 A2987 RMK AO2 SLP102 T02610189

More Conditions Fewer Conditions

10-Day Weather Forecast

Almanac

Astronomy

Sep. 17, 2014 Rise Set
Actual Time 7:14 AM CDT 7:36 PM CDT
Civil Twilight 6:47 AM CDT 8:03 PM CDT
Nautical Twilight 6:15 AM CDT 8:34 PM CDT
Astronomical Twilight 5:43 AM CDT 9:06 PM CDT
Moon 1:16 AM CDT 3:45 PM CDT
Length of Visible Light 13h 15m
Length of Day
12h 22m
Tomorrow will be 2m 33s shorter.
Waning Crescent, 32% of the Moon is Illuminated
Today
Waning Crescent
Sep 24
New
Oct 1
First Quarter
Oct 8
Full
Oct 15
Last Quarter

Today's Extremes

State Highs State Lows

Community

WunderPhotos

Upload Photos

1,754,185 photos uploaded!

Nearby

Snow Depth

Station Depth Elevation
No new snow has been reported.

Earthquake Activity

City Distance Mag. Time & Date
No recent earthquake activity has been reported nearby.
Minimum magnitude displayed is 2.5.

Coastal Water Temperatures

Place Temperature
No Stations Reporting

Nearby Weather Stations